createdAt,value
2023-06-02T00:00:22.999Z,96950.22
2023-06-02T00:02:55.180Z,96951.94
2023-06-02T00:05:26.327Z,96942.97
2023-06-02T00:07:56.619Z,96943.84
2023-06-02T00:10:24.733Z,96946.53
2023-06-02T00:12:54.286Z,96948.38
2023-06-02T00:15:22.400Z,96945.69
2023-06-02T00:17:50.527Z,96943.97
2023-06-02T00:20:19.181Z,96939.44
2023-06-02T00:22:48.090Z,96941.16
2023-06-02T00:25:16.330Z,96945.69
2023-06-02T00:27:44.436Z,96934.06
2023-06-02T00:30:15.784Z,96942.97
2023-06-02T00:32:43.974Z,96939.44
2023-06-02T00:35:12.150Z,96942.97
2023-06-02T00:37:40.257Z,96932.34
2023-06-02T00:40:09.990Z,96935.91
2023-06-02T00:42:38.105Z,96938.59
2023-06-02T00:45:07.080Z,96935.91
2023-06-02T00:47:36.533Z,96938.59
2023-06-02T00:50:04.802Z,96934.91
2023-06-02T00:52:33.018Z,96933.19
2023-06-02T00:55:01.145Z,96933.19
2023-06-02T00:57:29.948Z,96934.06
2023-06-02T00:59:58.345Z,96933.19
2023-06-02T01:02:27.494Z,96921.56
2023-06-02T01:04:58.770Z,96919.72
2023-06-02T01:07:29.071Z,96922.41
2023-06-02T01:09:58.228Z,96924.13
2023-06-02T01:12:26.281Z,96916.16
2023-06-02T01:14:54.602Z,96917.91
2023-06-02T01:17:26.194Z,96914.47
2023-06-02T01:19:57.441Z,96914.34
2023-06-02T01:22:26.416Z,96918.88
2023-06-02T01:24:59.409Z,96922.41
2023-06-02T01:27:27.587Z,96916.16
2023-06-02T01:29:56.778Z,96911.66
2023-06-02T01:32:27.303Z,96919.72
2023-06-02T01:34:59.152Z,96918.88
2023-06-02T01:37:27.223Z,96918.00
2023-06-02T01:39:56.633Z,96913.59
2023-06-02T01:42:24.758Z,96914.47
2023-06-02T01:44:52.771Z,96912.59
2023-06-02T01:47:21.910Z,96904.53
2023-06-02T01:49:49.912Z,96905.53
2023-06-02T01:52:18.551Z,96908.22
2023-06-02T01:54:47.457Z,96915.31
2023-06-02T01:57:17.155Z,96917.16
2023-06-02T01:59:45.263Z,96909.09
2023-06-02T02:02:14.139Z,96908.22
2023-06-02T02:04:42.542Z,96903.69
2023-06-02T02:07:13.131Z,96906.38
2023-06-02T02:09:43.539Z,96905.41
2023-06-02T02:12:11.707Z,96909.09
2023-06-02T02:14:41.095Z,96901.84
2023-06-02T02:17:11.305Z,96901.00
2023-06-02T02:19:39.409Z,96901.84
2023-06-02T02:22:07.851Z,96898.31
2023-06-02T02:24:36.908Z,96903.69
2023-06-02T02:27:05.368Z,96901.00
2023-06-02T02:29:33.564Z,96899.13
2023-06-02T02:32:03.636Z,96897.44
2023-06-02T02:34:33.897Z,96898.31
2023-06-02T02:37:02.941Z,96895.72
2023-06-02T02:39:32.803Z,96896.56
2023-06-02T02:42:01.374Z,96897.44
2023-06-02T02:44:29.438Z,96894.88
2023-06-02T02:46:59.468Z,96901.97
2023-06-02T02:49:28.972Z,96899.28
2023-06-02T02:51:57.780Z,96910.03
2023-06-02T02:54:25.912Z,96904.66
2023-06-02T02:56:54.184Z,96904.66
2023-06-02T02:59:22.778Z,96901.09
2023-06-02T03:01:50.940Z,96905.53
2023-06-02T03:04:24.102Z,96901.97
2023-06-02T03:06:56.049Z,96909.19
2023-06-02T03:09:27.088Z,96903.78
2023-06-02T03:11:58.603Z,96902.97
2023-06-02T03:14:29.525Z,96896.72
2023-06-02T03:17:01.380Z,96895.84
2023-06-02T03:19:30.009Z,96899.28
2023-06-02T03:21:59.530Z,96894.88
2023-06-02T03:24:28.429Z,96900.25
2023-06-02T03:27:01.094Z,96899.28
2023-06-02T03:29:29.253Z,96899.28
2023-06-02T03:31:57.327Z,96901.09
2023-06-02T03:34:29.795Z,96892.19
2023-06-02T03:37:02.889Z,96894.00
2023-06-02T03:39:32.124Z,96891.31
2023-06-02T03:42:00.275Z,96895.72
2023-06-02T03:44:28.406Z,96896.56
2023-06-02T03:46:56.742Z,96902.09
2023-06-02T03:49:28.195Z,96894.88
2023-06-02T03:51:56.764Z,96901.09
2023-06-02T03:54:28.200Z,96901.09
2023-06-02T03:56:56.279Z,96902.09
2023-06-02T03:59:24.422Z,96902.09
2023-06-02T04:01:52.640Z,96907.47
2023-06-02T04:04:21.239Z,96899.41
2023-06-02T04:06:49.975Z,96898.53
2023-06-02T04:09:18.188Z,96898.41
2023-06-02T04:11:48.746Z,96898.41
2023-06-02T04:14:17.275Z,96899.28
2023-06-02T04:16:48.651Z,96897.44
2023-06-02T04:19:17.625Z,96905.41
2023-06-02T04:21:46.256Z,96899.13
2023-06-02T04:24:15.435Z,96899.03
2023-06-02T04:26:43.777Z,96899.66
2023-06-02T04:29:13.246Z,96900.16
2023-06-02T04:31:44.251Z,96902.25
2023-06-02T04:34:16.007Z,96898.09
2023-06-02T04:36:44.503Z,96895.22
2023-06-02T04:39:14.011Z,96889.94
2023-06-02T04:41:42.246Z,96892.59
2023-06-02T04:44:11.270Z,96899.50
2023-06-02T04:46:41.684Z,96907.16
2023-06-02T04:49:10.831Z,96899.63
2023-06-02T04:51:40.025Z,96898.31
2023-06-02T04:54:11.256Z,96896.25
2023-06-02T04:56:40.590Z,96886.25
2023-06-02T04:59:13.673Z,96889.69
2023-06-02T05:01:44.609Z,96894.81
2023-06-02T05:04:12.766Z,96888.34
2023-06-02T05:06:40.888Z,96887.47
2023-06-02T05:09:09.034Z,96882.97
2023-06-02T05:11:37.563Z,96888.22
2023-06-02T05:14:07.240Z,96883.56
2023-06-02T05:16:37.082Z,96880.75
2023-06-02T05:19:07.327Z,96885.19
2023-06-02T05:21:38.357Z,96880.75
2023-06-02T05:24:06.966Z,96881.63
2023-06-02T05:26:35.011Z,96882.50
2023-06-02T05:29:03.745Z,96872.59
2023-06-02T05:31:32.290Z,96879.69
2023-06-02T05:34:00.843Z,96877.84
2023-06-02T05:36:30.232Z,96879.56
2023-06-02T05:38:58.606Z,96880.28
2023-06-02T05:41:29.066Z,96881.16
2023-06-02T05:43:57.756Z,96882.88
2023-06-02T05:46:25.956Z,96883.72
2023-06-02T05:48:54.146Z,96880.06
2023-06-02T05:51:22.690Z,96876.16
2023-06-02T05:53:52.818Z,96879.34
2023-06-02T05:56:21.556Z,96878.38
2023-06-02T05:58:49.733Z,96873.13
2023-06-02T06:01:18.276Z,96883.03
2023-06-02T06:03:46.465Z,96883.88
2023-06-02T06:06:15.052Z,96882.56
2023-06-02T06:08:43.135Z,96880.47
2023-06-02T06:11:13.443Z,96874.88
2023-06-02T06:13:41.634Z,96880.00
2023-06-02T06:16:09.840Z,96874.38
2023-06-02T06:18:37.953Z,96875.94
2023-06-02T06:21:06.043Z,96882.06
2023-06-02T06:23:34.297Z,96875.72
2023-06-02T06:26:02.637Z,96880.03
2023-06-02T06:28:32.673Z,96878.06
2023-06-02T06:31:02.335Z,96877.06
2023-06-02T06:33:31.374Z,96876.16
2023-06-02T06:35:59.734Z,96873.31
2023-06-02T06:38:28.035Z,96873.19
2023-06-02T06:40:56.668Z,96879.31
2023-06-02T06:43:25.642Z,96872.84
2023-06-02T06:46:00.626Z,96872.84
2023-06-02T06:48:28.921Z,96877.22
2023-06-02T06:50:57.029Z,96876.28
2023-06-02T06:53:25.132Z,96870.75
2023-06-02T06:55:53.141Z,96878.69
2023-06-02T06:58:21.244Z,96876.88
2023-06-02T07:00:49.265Z,96874.19
2023-06-02T07:03:18.785Z,96877.75
2023-06-02T07:05:47.737Z,96875.78
2023-06-02T07:08:15.824Z,96877.47
2023-06-02T07:10:44.300Z,96878.34
2023-06-02T07:13:12.383Z,96886.28
2023-06-02T07:15:40.440Z,96873.69
2023-06-02T07:18:08.566Z,96879.06
2023-06-02T07:20:38.052Z,96878.13
2023-06-02T07:23:06.335Z,96878.94
2023-06-02T07:25:34.382Z,96878.00
2023-06-02T07:28:02.471Z,96873.47
2023-06-02T07:30:30.533Z,96873.47
2023-06-02T07:32:58.707Z,96870.78
2023-06-02T07:35:26.786Z,96867.94
2023-06-02T07:37:56.415Z,96872.47
2023-06-02T07:40:24.479Z,96866.13
2023-06-02T07:42:52.584Z,96863.44
2023-06-02T07:45:20.639Z,96854.34
2023-06-02T07:47:48.778Z,96857.03
2023-06-02T07:50:16.860Z,96854.34
2023-06-02T07:52:45.116Z,96860.47
2023-06-02T07:55:14.553Z,96854.22
2023-06-02T07:57:42.658Z,96857.78
2023-06-02T08:00:15.220Z,96855.94
2023-06-02T08:02:44.765Z,96853.25
2023-06-02T08:05:13.087Z,96849.69
2023-06-02T08:07:41.233Z,96851.44
2023-06-02T08:10:10.359Z,96849.56
2023-06-02T08:12:39.844Z,96852.25
2023-06-02T08:15:09.078Z,96851.44
2023-06-02T08:17:37.202Z,96850.44
2023-06-02T08:20:06.250Z,96848.59
2023-06-02T08:22:35.224Z,96853.00
2023-06-02T08:25:04.815Z,96854.84
2023-06-02T08:27:32.937Z,96854.84
2023-06-02T08:30:02.418Z,96853.84
2023-06-02T08:32:30.940Z,96850.19
2023-06-02T08:35:02.596Z,96853.63
2023-06-02T08:37:30.876Z,96848.97
2023-06-02T08:39:58.934Z,96848.97
2023-06-02T08:42:27.764Z,96839.16
2023-06-02T08:44:55.782Z,96843.59
2023-06-02T08:47:26.389Z,96843.47
2023-06-02T08:49:54.467Z,96845.16
2023-06-02T08:52:23.513Z,96840.63
2023-06-02T08:54:51.642Z,96846.03
2023-06-02T08:57:21.462Z,96846.88
2023-06-02T08:59:49.520Z,96839.66
2023-06-02T09:02:17.772Z,96842.34
2023-06-02T09:04:47.343Z,96843.19
2023-06-02T09:07:21.117Z,96836.97
2023-06-02T09:09:50.674Z,96836.09
2023-06-02T09:12:20.043Z,96827.16
2023-06-02T09:14:48.909Z,96829.84
2023-06-02T09:17:27.088Z,96829.00
2023-06-02T09:19:57.211Z,96830.00
2023-06-02T09:22:25.278Z,96831.69
2023-06-02T09:24:53.878Z,96827.03
2023-06-02T09:27:22.462Z,96822.50
2023-06-02T09:29:51.827Z,96820.69
2023-06-02T09:32:21.564Z,96820.69
2023-06-02T09:34:50.254Z,96814.44
2023-06-02T09:37:20.313Z,96813.47
2023-06-02T09:39:50.487Z,96811.72
2023-06-02T09:42:20.562Z,96811.59
2023-06-02T09:45:03.828Z,96805.38
2023-06-02T09:47:32.153Z,96815.16
2023-06-02T09:50:00.339Z,96811.59
2023-06-02T09:52:29.792Z,96803.38
2023-06-02T09:54:57.990Z,96800.69
2023-06-02T09:57:26.116Z,96813.19
2023-06-02T09:59:54.195Z,96808.66
2023-06-02T10:02:22.295Z,96814.88
2023-06-02T10:04:50.388Z,96802.41
2023-06-02T10:07:27.310Z,96794.34
2023-06-02T10:10:08.509Z,96798.72
2023-06-02T10:12:44.424Z,96788.09
2023-06-02T10:15:23.896Z,96786.25
2023-06-02T10:17:54.985Z,96778.19
2023-06-02T10:20:28.405Z,96779.13
2023-06-02T10:23:12.520Z,96781.72
2023-06-02T10:25:51.266Z,96780.72
2023-06-02T10:28:19.460Z,96776.22
2023-06-02T10:30:47.570Z,96768.13
2023-06-02T10:33:15.741Z,96768.84
2023-06-02T10:36:02.693Z,96772.41
2023-06-02T10:38:33.119Z,96762.47
2023-06-02T10:41:03.110Z,96761.63
2023-06-02T10:43:31.432Z,96769.72
2023-06-02T10:46:17.555Z,96765.16
2023-06-02T10:48:45.878Z,96757.94
2023-06-02T10:51:14.390Z,96762.38
2023-06-02T10:54:17.247Z,96759.66
2023-06-02T10:56:47.616Z,96751.47
2023-06-02T10:59:36.052Z,96763.94
2023-06-02T11:02:04.521Z,96760.41
2023-06-02T11:04:33.451Z,96763.81
2023-06-02T11:07:19.862Z,96755.75
2023-06-02T11:09:48.270Z,96745.78
2023-06-02T11:12:17.672Z,96744.97
2023-06-02T11:15:20.029Z,96747.53
2023-06-02T11:17:51.766Z,96747.53
2023-06-02T11:20:20.329Z,96736.88
2023-06-02T11:22:48.633Z,96736.88
2023-06-02T11:25:18.208Z,96732.22
2023-06-02T11:27:48.933Z,96732.22
2023-06-02T11:30:18.211Z,96734.06
2023-06-02T11:32:48.728Z,96720.56
2023-06-02T11:35:17.391Z,96724.13
2023-06-02T11:37:46.105Z,96720.56
2023-06-02T11:40:15.118Z,96719.56
2023-06-02T11:42:44.079Z,96724.00
2023-06-02T11:45:23.561Z,96718.63
2023-06-02T11:47:58.777Z,96717.75
2023-06-02T11:50:26.991Z,96725.69
2023-06-02T11:52:55.382Z,96726.56
2023-06-02T11:55:27.374Z,96723.72
2023-06-02T11:57:55.842Z,96725.47
2023-06-02T12:00:25.269Z,96727.16
2023-06-02T12:02:54.441Z,96724.44
2023-06-02T12:05:36.059Z,96719.78
2023-06-02T12:08:13.836Z,96727.03
2023-06-02T12:10:42.150Z,96722.47
2023-06-02T12:13:10.785Z,96726.91
2023-06-02T12:15:40.248Z,96736.69
2023-06-02T12:18:08.436Z,96735.72
2023-06-02T12:20:40.602Z,96741.13
2023-06-02T12:23:09.650Z,96736.63
2023-06-02T12:25:37.765Z,96741.88
2023-06-02T12:28:08.421Z,96746.25
2023-06-02T12:30:36.774Z,96742.59
2023-06-02T12:33:10.268Z,96739.91
2023-06-02T12:35:38.878Z,96737.22
2023-06-02T12:38:07.023Z,96739.91
2023-06-02T12:40:35.138Z,96745.28
2023-06-02T12:43:03.325Z,96742.59
2023-06-02T12:45:32.069Z,96738.19
2023-06-02T12:48:00.315Z,96737.22
2023-06-02T12:50:30.159Z,96740.88
2023-06-02T12:52:58.577Z,96742.59
2023-06-02T12:55:27.884Z,96735.47
2023-06-02T12:57:56.251Z,96734.50
2023-06-02T13:00:24.346Z,96746.25
2023-06-02T13:02:52.444Z,96736.34
2023-06-02T13:05:20.590Z,96730.09
2023-06-02T13:07:50.017Z,96737.22
2023-06-02T13:10:18.123Z,96729.13
2023-06-02T13:12:46.194Z,96724.69
2023-06-02T13:15:14.276Z,96734.66
2023-06-02T13:17:42.599Z,96734.66
2023-06-02T13:20:11.781Z,96736.47
2023-06-02T13:22:39.922Z,96742.72
2023-06-02T13:25:10.328Z,96754.34
2023-06-02T13:27:42.614Z,96753.50
2023-06-02T13:30:12.333Z,96749.97
2023-06-02T13:32:40.424Z,96749.09
2023-06-02T13:35:09.474Z,96751.78
2023-06-02T13:37:38.069Z,96754.34
2023-06-02T13:40:07.460Z,96753.50
2023-06-02T13:42:36.994Z,96752.50
2023-06-02T13:45:05.362Z,96752.66
2023-06-02T13:47:33.477Z,96748.13
2023-06-02T13:50:01.608Z,96752.50
2023-06-02T13:52:29.687Z,96751.66
2023-06-02T13:54:58.295Z,96756.22
2023-06-02T13:57:26.316Z,96759.72
2023-06-02T13:59:55.759Z,96766.00
2023-06-02T14:02:24.303Z,96771.38
2023-06-02T14:04:52.481Z,96770.41
2023-06-02T14:07:21.207Z,96777.50
2023-06-02T14:09:49.376Z,96775.81
2023-06-02T14:12:17.455Z,96782.03
2023-06-02T14:14:45.524Z,96788.28
2023-06-02T14:17:14.993Z,96788.28
2023-06-02T14:19:43.130Z,96792.69
2023-06-02T14:22:11.327Z,96794.53
2023-06-02T14:24:40.108Z,96787.31
2023-06-02T14:27:08.649Z,96785.44
2023-06-02T14:29:36.727Z,96795.41
2023-06-02T14:32:05.058Z,96797.09
2023-06-02T14:34:34.589Z,96800.66
2023-06-02T14:37:02.658Z,96805.91
2023-06-02T14:39:30.910Z,96809.59
2023-06-02T14:42:00.732Z,96804.94
2023-06-02T14:44:29.410Z,96799.28
2023-06-02T14:46:57.744Z,96801.97
2023-06-02T14:49:25.874Z,96803.69
2023-06-02T14:51:55.368Z,96801.00
2023-06-02T14:54:24.061Z,96793.03
2023-06-02T14:56:52.242Z,96783.25
2023-06-02T14:59:20.550Z,96775.16
2023-06-02T15:01:48.623Z,96776.03
2023-06-02T15:04:16.959Z,96769.75
2023-06-02T15:06:45.090Z,96784.94
2023-06-02T15:09:14.537Z,96784.94
2023-06-02T15:11:42.584Z,96790.31
2023-06-02T15:14:10.793Z,96785.81
2023-06-02T15:16:38.857Z,96784.94
2023-06-02T15:19:07.160Z,96785.94
2023-06-02T15:21:35.321Z,96790.31
2023-06-02T15:24:04.173Z,96789.50
2023-06-02T15:26:33.617Z,96789.50
2023-06-02T15:29:01.692Z,96798.41
2023-06-02T15:31:29.932Z,96800.28
2023-06-02T15:33:58.036Z,96794.03
2023-06-02T15:36:30.613Z,96801.09
2023-06-02T15:38:58.889Z,96800.28
2023-06-02T15:41:27.475Z,96796.72
2023-06-02T15:43:56.990Z,96799.41
2023-06-02T15:46:25.208Z,96791.31
2023-06-02T15:48:53.692Z,96799.41
2023-06-02T15:51:21.861Z,96807.22
2023-06-02T15:53:50.393Z,96805.41
2023-06-02T15:56:19.312Z,96813.34
2023-06-02T15:58:47.323Z,96817.91
2023-06-02T16:01:16.903Z,96824.13
2023-06-02T16:03:45.748Z,96822.44
2023-06-02T16:06:14.207Z,96813.47
2023-06-02T16:08:42.320Z,96817.19
2023-06-02T16:11:11.234Z,96819.88
2023-06-02T16:13:39.247Z,96821.72
2023-06-02T16:16:07.935Z,96826.22
2023-06-02T16:18:37.673Z,96834.31
2023-06-02T16:21:05.819Z,96839.72
2023-06-02T16:23:34.029Z,96843.41
2023-06-02T16:26:02.374Z,96844.25
2023-06-02T16:28:31.344Z,96856.03
2023-06-02T16:30:59.504Z,96851.50
2023-06-02T16:33:28.624Z,96864.09
2023-06-02T16:35:58.093Z,96863.25
2023-06-02T16:38:26.266Z,96858.84
2023-06-02T16:40:54.490Z,96857.97
2023-06-02T16:43:22.763Z,96867.75
2023-06-02T16:45:50.966Z,96863.38
2023-06-02T16:48:18.999Z,96866.06
2023-06-02T16:50:47.100Z,96876.84
2023-06-02T16:53:16.511Z,96875.13
2023-06-02T16:55:44.651Z,96876.13
2023-06-02T16:58:12.714Z,96878.81
2023-06-02T17:00:41.342Z,96877.09
2023-06-02T17:03:09.492Z,96878.94
2023-06-02T17:05:37.597Z,96878.09
2023-06-02T17:08:05.917Z,96878.22
2023-06-02T17:10:35.825Z,96878.22
2023-06-02T17:13:03.949Z,96880.19
2023-06-02T17:15:32.079Z,96878.31
2023-06-02T17:18:00.292Z,96873.94
2023-06-02T17:20:28.562Z,96884.84
2023-06-02T17:22:56.744Z,96895.63
2023-06-02T17:25:24.855Z,96894.84
2023-06-02T17:27:55.183Z,96914.56
2023-06-02T17:30:23.276Z,96925.47
2023-06-02T17:32:51.596Z,96926.47
2023-06-02T17:35:19.738Z,96927.28
2023-06-02T17:37:47.746Z,96931.72
2023-06-02T17:40:16.207Z,96937.97
2023-06-02T17:42:45.017Z,96938.81
2023-06-02T17:45:14.557Z,96943.22
2023-06-02T17:47:42.645Z,96944.19
2023-06-02T17:50:11.713Z,96946.06
2023-06-02T17:52:41.012Z,96945.19
2023-06-02T17:55:09.793Z,96948.03
2023-06-02T17:57:37.993Z,96944.59
2023-06-02T18:00:07.279Z,96950.94
2023-06-02T18:02:39.562Z,96952.03
2023-06-02T18:05:09.810Z,96952.03
2023-06-02T18:07:37.961Z,96946.78
2023-06-02T18:10:06.940Z,96952.16
2023-06-02T18:12:34.995Z,96955.97
2023-06-02T18:15:03.044Z,96965.03
2023-06-02T18:17:31.091Z,96972.25
2023-06-02T18:20:00.701Z,96974.09
2023-06-02T18:22:29.288Z,96973.13
2023-06-02T18:24:57.624Z,96985.72
2023-06-02T18:27:25.696Z,96986.59
2023-06-02T18:29:53.774Z,96990.25
2023-06-02T18:32:22.183Z,96995.78
2023-06-02T18:34:50.430Z,96988.03
2023-06-02T18:37:20.038Z,96988.19
2023-06-02T18:39:48.324Z,96988.56
2023-06-02T18:42:16.721Z,96983.41
2023-06-02T18:44:46.160Z,96985.97
2023-06-02T18:47:14.279Z,96989.41
2023-06-02T18:49:42.502Z,96988.44
2023-06-02T18:52:10.598Z,96997.34
2023-06-02T18:54:41.052Z,97011.69
2023-06-02T18:57:09.523Z,97015.25
2023-06-02T18:59:37.670Z,97026.75
2023-06-02T19:02:06.212Z,97030.41
2023-06-02T19:04:34.388Z,97042.94
2023-06-02T19:07:02.969Z,97037.53
2023-06-02T19:09:31.009Z,97042.94
2023-06-02T19:12:00.464Z,97052.72
2023-06-02T19:14:28.520Z,97059.97
2023-06-02T19:16:56.772Z,97064.34
2023-06-02T19:19:24.904Z,97059.81
2023-06-02T19:21:53.022Z,97064.34
2023-06-02T19:24:21.044Z,97064.34
2023-06-02T19:26:49.208Z,97068.78
2023-06-02T19:29:18.839Z,97064.22
2023-06-02T19:31:47.647Z,97063.38
2023-06-02T19:34:15.698Z,97067.78
2023-06-02T19:36:43.856Z,97071.34
2023-06-02T19:39:11.989Z,97065.94
2023-06-02T19:41:40.097Z,97063.25
2023-06-02T19:44:09.645Z,97057.88
2023-06-02T19:46:39.858Z,97069.38
2023-06-02T19:49:09.291Z,97067.66
2023-06-02T19:51:37.357Z,97068.53
2023-06-02T19:54:05.655Z,97064.00
2023-06-02T19:56:33.759Z,97067.56
2023-06-02T19:59:02.019Z,97072.09
2023-06-02T20:01:30.133Z,97070.25
2023-06-02T20:03:59.623Z,97072.94
2023-06-02T20:06:27.858Z,97073.78
2023-06-02T20:08:56.137Z,97065.69
2023-06-02T20:11:24.247Z,97064.75
2023-06-02T20:13:52.281Z,97071.97
2023-06-02T20:16:20.436Z,97065.69
2023-06-02T20:18:49.506Z,97070.13
2023-06-02T20:21:19.108Z,97065.59
2023-06-02T20:23:47.458Z,97065.59
2023-06-02T20:26:16.550Z,97066.56
2023-06-02T20:28:44.698Z,97066.44
2023-06-02T20:31:13.086Z,97074.53
2023-06-02T20:33:41.396Z,97062.91
2023-06-02T20:36:09.484Z,97072.69
2023-06-02T20:38:38.891Z,97073.69
2023-06-02T20:41:07.032Z,97071.81
2023-06-02T20:43:35.134Z,97076.38
2023-06-02T20:46:03.745Z,97071.72
2023-06-02T20:48:31.814Z,97071.81
2023-06-02T20:50:59.873Z,97071.81
2023-06-02T20:53:27.884Z,97071.81
2023-06-02T20:55:57.605Z,97077.97
2023-06-02T20:58:25.683Z,97085.22
2023-06-02T21:00:53.787Z,97089.59
2023-06-02T21:03:21.996Z,97093.28
2023-06-02T21:05:50.187Z,97093.28
2023-06-02T21:08:18.234Z,97094.13
2023-06-02T21:10:46.296Z,97093.28
2023-06-02T21:13:15.734Z,97091.44
2023-06-02T21:15:43.829Z,97100.38
2023-06-02T21:18:11.839Z,97110.28
2023-06-02T21:20:39.936Z,97112.03
2023-06-02T21:23:07.984Z,97126.38
2023-06-02T21:25:36.067Z,97121.94
2023-06-02T21:28:04.298Z,97122.81
2023-06-02T21:30:33.726Z,97128.19
2023-06-02T21:33:01.825Z,97123.66
2023-06-02T21:35:29.975Z,97120.97
2023-06-02T21:37:58.012Z,97130.03
2023-06-02T21:40:26.086Z,97130.03
2023-06-02T21:42:54.109Z,97130.03
2023-06-02T21:45:22.235Z,97136.28
2023-06-02T21:47:51.746Z,97143.50
2023-06-02T21:50:19.922Z,97139.94
2023-06-02T21:52:48.012Z,97144.38
2023-06-02T21:55:16.258Z,97149.75
2023-06-02T21:57:44.320Z,97138.97
2023-06-02T22:00:13.867Z,97143.50
2023-06-02T22:02:42.007Z,97151.59
2023-06-02T22:05:12.690Z,97149.75
2023-06-02T22:07:40.775Z,97154.28
2023-06-02T22:10:09.756Z,97152.44
2023-06-02T22:12:37.803Z,97151.59
2023-06-02T22:15:06.722Z,97153.31
2023-06-02T22:17:35.004Z,97153.31
2023-06-02T22:20:05.140Z,97153.41
2023-06-02T22:22:34.655Z,97149.75
2023-06-02T22:25:02.741Z,97149.75
2023-06-02T22:27:30.803Z,97153.31
2023-06-02T22:29:58.919Z,97143.50
2023-06-02T22:32:26.969Z,97140.81
2023-06-02T22:34:55.098Z,97147.06
2023-06-02T22:37:23.146Z,97146.19
2023-06-02T22:39:52.639Z,97148.88
2023-06-02T22:42:23.385Z,97150.72
2023-06-02T22:44:52.386Z,97144.38
2023-06-02T22:47:20.448Z,97153.41
2023-06-02T22:49:48.554Z,97145.31
2023-06-02T22:52:16.551Z,97152.56
2023-06-02T22:54:44.663Z,97157.97
2023-06-02T22:57:14.063Z,97156.97
2023-06-02T22:59:42.150Z,97156.09
2023-06-02T23:02:10.220Z,97158.78
2023-06-02T23:04:38.396Z,97160.53
2023-06-02T23:07:06.698Z,97161.50
2023-06-02T23:09:34.803Z,97164.19
2023-06-02T23:12:02.837Z,97169.56
2023-06-02T23:14:32.314Z,97169.56
2023-06-02T23:17:00.444Z,97174.97
2023-06-02T23:19:28.483Z,97168.75
2023-06-02T23:21:56.552Z,97160.66
2023-06-02T23:24:24.597Z,97176.69
2023-06-02T23:26:52.716Z,97164.19
2023-06-02T23:29:20.759Z,97175.84
2023-06-02T23:31:51.052Z,97167.75
2023-06-02T23:34:19.124Z,97164.19
2023-06-02T23:36:47.177Z,97161.50
2023-06-02T23:39:15.273Z,97165.06
2023-06-02T23:41:43.262Z,97166.88
2023-06-02T23:44:11.485Z,97172.28
2023-06-02T23:46:39.522Z,97167.75
2023-06-02T23:49:09.603Z,97164.19
2023-06-02T23:51:37.773Z,97155.25
2023-06-02T23:54:05.995Z,97152.56
2023-06-02T23:56:34.076Z,97158.78
2023-06-02T23:59:02.100Z,97160.66
